Tiempo atmosférico en la estación meteorológica de Coll De Nargó, Lleida (603 m.)



Fecha
DESCASC
Temp. máxima en grados centígrados (hora)
DESCASC
Temp. mínima en grados centígrados (hora)
DESCASC
Temp. media en grados centígrados
DESCASC
Racha de viento máxima en m/sg (hora)
DESCASC
Velocidad máxima media en intervalos de 10 minutos(hora)
DESCASC
Precipitaciones diarias en mm
DESCASC
Precipitaciones de 00:00 a 06:00 en mm
DESCASC
Precipitaciones de 06:00 a 12:00 en mm
DESCASC
Precipitaciones de 12:00 a 18:00 en mm
DESCASC
Precipitaciones de 18:00 a 24:00 en mm
DESCASC
08-12-2019 10.8 (12:20) -0.8 (09:00) 5 15.28 (14:50) 12.22 (14:40) 0.2 0 0.2 0 0
07-12-2019 16.1 (14:20) -0.1 (07:30) 8 10.56 (16:40) 8.89 (16:40) 0 0 0 0 0
06-12-2019 16.5 (13:30) 1.8 (09:30) 9.1 12.5 (15:50) 10.56 (15:40) 0 0 0 0 0
05-12-2019 11.9 (13:40) 3 (00:00) 7.4 11.67 (14:10) 8.06 (14:10) 0.2 0.2 0 0 0
04-12-2019 9.2 (16:50) -0.4 (00:00) 4.4 9.17 (19:30) 5 (19:30) 1.8 0 0 1.2 0.6
03-12-2019 12.6 (14:20) -2.1 (-00:0) 5.3 10.28 (15:00) 7.22 (15:00) 0.2 0 0.2 0 0
02-12-2019 -- (--) -- (--) -- 13.06 (16:00) 11.39 (16:00) 0.2 0 0.2 0 0
01-12-2019 12.9 (13:50) 2.9 (00:00) 7.9 10.28 (02:10) 7.5 (14:30) 0.4 0.4 0 0 0
30-11-2019 17.2 (13:40) 1.1 (00:00) 9.2 8.89 (22:30) 4.72 (23:00) 0.8 0 0 0 0.8
29-11-2019 20 (12:50) 4.4 (00:00) 12.2 9.72 (15:00) 7.78 (15:00) 0 0 0 0 0
28-11-2019 16.9 (12:10) 5.9 (00:00) 11.4 8.89 (21:20) 4.44 (22:50) 0 0 0 0 0
27-11-2019 18.1 (12:00) 6.9 (00:00) 12.5 9.17 (06:30) 6.94 (06:40) 1.6 1 0.6 0 0
26-11-2019 16.6 (13:40) 0.3 (00:00) 8.5 7.5 (14:30) 4.17 (14:50) 0.6 0 0 0 0.6
25-11-2019 15.1 (13:30) 0.3 (00:00) 7.7 10 (14:50) 7.78 (14:50) 0 0 0 0 0
24-11-2019 18 (13:50) 0.4 (00:00) 9.2 13.89 (14:30) 10.56 (14:30) 0 0 0 0 0
23-11-2019 11.9 (14:10) 3.7 (00:00) 7.8 12.22 (00:10) 6.94 (00:10) 2.6 2.2 0.2 0.2 0
22-11-2019 10.1 (23:59) -0.9 (-00:0) 4.6 13.89 (20:40) 6.39 (17:20) 48.6 0 0 4.6 44
21-11-2019 12.4 (13:00) -2.6 (-00:0) 4.9 10 (14:50) 7.22 (14:50) 0.2 0 0.2 0 0
20-11-2019 13.4 (14:50) -3.9 (-00:0) 4.7 9.17 (15:50) 7.5 (15:50) 0 0 0 0 0
19-11-2019 9.9 (12:50) -3.1 (-00:0) 3.4 13.33 (16:20) 10.56 (16:10) 0 0 0 0 0
18-11-2019 15.1 (13:00) 0 (00:00) 7.6 13.89 (14:40) 11.67 (14:40) 0 0 0 0 0
17-11-2019 8.7 (15:10) -3.4 (-00:0) 2.6 11.39 (14:20) 8.89 (14:20) 0 0 0 0 0
16-11-2019 11.1 (12:50) -3.3 (-00:0) 3.9 12.22 (15:00) 9.72 (15:00) 0.2 0 0 0.2 0
15-11-2019 8.1 (11:10) -1.7 (-00:0) 3.2 10.56 (13:10) 8.61 (13:10) 0.2 0 0 0.2 0
14-11-2019 6.9 (14:50) 1 (00:00) 4 9.17 (15:40) 6.39 (16:40) 6.4 0.8 5 0.4 0.2
13-11-2019 16 (13:40) 0.2 (00:00) 8.1 12.22 (16:50) 9.72 (17:50) 0 0 0 0 0
12-11-2019 16.1 (12:50) 2.1 (00:00) 9.1 16.39 (14:30) 9.17 (14:30) 0 0 0 0 0

Gráficas

Temp. máximas Temp. mínimas Temp. medias Precipitaciones Rachas de viento máximas Velocidades máximas media en intervalos de 10 minutos

Datos horarios

Fecha y hora oficial Temperatura (ºC) Velocidad del viento (km/h) Dirección del viento Racha (km/h) Dirección de racha Precipitación (mm) Presión (hPa) Tendencia (hPa) Humedad (%)
2019-12-11 23:00:00 -0.2 0 Calma 10 Norte 0 -- -- 97
2019-12-11 22:00:00 0.6 8 Norte 10 Norte 0 -- -- 95
2019-12-11 21:00:00 2.7 4 Sudoeste 13 Sur 0 -- -- 95
2019-12-11 20:00:00 2.4 9 Sur 12 Sur 0 -- -- 95
2019-12-11 19:00:00 4.1 2 Sur 5 Sur 0 -- -- 89
2019-12-11 18:00:00 4 3 Nordeste 6 Sur 0 -- -- 90
2019-12-11 17:00:00 5.4 3 Sur 14 Sur 0 -- -- 86
2019-12-11 16:00:00 5.8 2 Sudoeste 9 Oeste 0 -- -- 76
2019-12-11 15:00:00 5.4 3 Noroeste 16 Sur 0.2 -- -- 75
2019-12-11 14:00:00 7.1 7 Sur 26 Sur 0 -- -- 63
2019-12-11 13:00:00 5.8 11 Sur 20 Sur 0 -- -- 63
2019-12-11 12:00:00 4.8 2 Nordeste 8 Norte 0 -- -- 67
2019-12-11 11:00:00 4.2 5 Nordeste 8 Norte 0 -- -- 66
2019-12-11 10:00:00 1.1 5 Norte 8 Norte 0 -- -- 84
2019-12-11 09:00:00 0.2 5 Norte 10 Nordeste 0 -- -- 85
2019-12-11 08:00:00 0.1 4 Norte 8 Norte 0 -- -- 86
2019-12-11 07:00:00 0.7 5 Norte 8 Norte 0 -- -- 82
2019-12-11 06:00:00 0.6 6 Norte 10 Norte 0 -- -- 83
2019-12-11 05:00:00 0.6 4 Nordeste 11 Norte 0 -- -- 83
2019-12-11 04:00:00 0.7 3 Norte 8 Norte 0 -- -- 83
2019-12-11 03:00:00 0.2 5 Norte 9 Nordeste 0 -- -- 90
2019-12-11 02:00:00 0.3 4 Norte 12 Norte 0 -- -- 91
2019-12-11 01:00:00 0.4 6 Norte 10 Norte 0 -- -- 92
2019-12-11 00:00:00 0.2 6 Nordeste 9 Nordeste 0 -- -- 96
2019-12-10 23:00:00 0.7 6 Norte 8 Nordeste 0 -- -- 93
2019-12-10 22:00:00 0.6 9 Nordeste 12 Nordeste 0 -- -- 96
2019-12-10 21:00:00 0.9 7 Norte 12 Nordeste 0 -- -- 96
2019-12-10 20:00:00 1.9 8 Norte 10 Nordeste 0 -- -- 95
2019-12-10 19:00:00 3.3 3 Nordeste 11 Sur 0 -- -- 90
2019-12-10 18:00:00 4.4 9 Sur 30 Sur 0 -- -- 86
2019-12-10 17:00:00 5.7 23 Sur 48 Sur 0 -- -- 81
2019-12-10 16:00:00 6.5 35 Sur 46 Sur 0 -- -- 77
2019-12-10 15:00:00 6 37 Sur 61 Sur 0 -- -- 79
2019-12-10 14:00:00 7.4 46 Sur 57 Sur 0 -- -- 71
2019-12-10 13:00:00 8.9 47 Sur 65 Sur 0 -- -- 65
2019-12-10 12:00:00 8.8 40 Sur 53 Sur 0 -- -- 62
2019-12-10 11:00:00 14.9 10 Norte 29 Norte 0 -- -- 15
2019-12-10 10:00:00 11.2 12 Norte 41 Nordeste 0 -- -- 19
2019-12-10 09:00:00 10.6 17 Norte 58 Norte 0 -- -- 20
2019-12-10 08:00:00 11 31 Norte 60 Norte 0 -- -- 22
2019-12-10 07:00:00 10.8 31 Norte 55 Nordeste 0 -- -- 26
2019-12-10 06:00:00 10.7 31 Norte 62 Nordeste 0 -- -- 30
2019-12-10 05:00:00 10.1 32 Norte 59 Norte 0 -- -- 36
2019-12-10 04:00:00 9.7 33 Norte 71 Norte 0 -- -- 41
2019-12-10 03:00:00 10 26 Nordeste 58 Nordeste 0 -- -- 40
2019-12-10 02:00:00 10 32 Nordeste 56 Nordeste 0 -- -- 42
2019-12-10 01:00:00 9.9 30 Nordeste 56 Nordeste 0 -- -- 41
2019-12-10 00:00:00 9.1 22 Nordeste 47 Nordeste 0 -- -- 41
2019-12-09 23:00:00 9.6 27 Norte 57 Norte 0 -- -- 40
2019-12-09 22:00:00 8.2 23 Norte 53 Nordeste 0 -- -- 49
2019-12-09 21:00:00 9.3 38 Nordeste 56 Nordeste 0 -- -- 44
2019-12-09 20:00:00 8.4 21 Nordeste 31 Nordeste 0 -- -- 55
2019-12-09 19:00:00 9.2 21 Nordeste 37 Norte 0 -- -- 53
2019-12-09 18:00:00 7.7 16 Norte 25 Nordeste 0 -- -- 58
2019-12-09 17:00:00 9.5 19 Norte 35 Norte 0 -- -- 50
2019-12-09 16:00:00 12.1 31 Nordeste 47 Nordeste 0 -- -- 43
2019-12-09 15:00:00 14.2 5 Sur 15 Sur 0 -- -- 49
2019-12-09 14:00:00 12.4 9 Sur 14 Sur 0 -- -- 60
2019-12-09 13:00:00 11.1 6 Sudeste 13 Nordeste 0 -- -- 62
2019-12-09 12:00:00 9 3 Norte 17 Sur 0 -- -- 76
2019-12-09 11:00:00 4.1 0 Calma 9 Sur 0 -- -- 99
2019-12-09 10:00:00 2.1 5 Noroeste 10 Nordeste 0 -- -- 100
2019-12-09 09:00:00 1.9 3 Nordeste 12 Norte 0 -- -- 100
2019-12-09 08:00:00 2.1 6 Nordeste 13 Norte 0 -- -- 100
2019-12-09 07:00:00 1.9 12 Nordeste 21 Nordeste 0 -- -- 100
2019-12-09 06:00:00 2.3 5 Norte 8 Norte 0 -- -- 100
2019-12-09 05:00:00 2.5 5 Norte 8 Norte 0 -- -- 100
2019-12-09 04:00:00 2.5 3 Norte 12 Norte 0 -- -- 100
2019-12-09 03:00:00 2.7 3 Nordeste 5 Norte 0 -- -- 100
2019-12-09 02:00:00 2.4 4 Nordeste 17 Sur 0 -- -- 99
2019-12-09 01:00:00 2.1 3 Norte 9 Norte 0 -- -- 100
2019-12-09 00:00:00 3.2 4 Nordeste 14 Sur 0 -- -- 98
2019-12-08 23:00:00 4.3 10 Sur 17 Sur 0 -- -- 98
2019-12-08 22:00:00 3.8 2 Nordeste 9 Norte 0 -- -- 99
2019-12-08 21:00:00 3.6 5 Norte 10 Norte 0 -- -- 99
2019-12-08 20:00:00 3.3 6 Norte 9 Nordeste 0 -- -- 98
2019-12-08 19:00:00 3.8 3 Sur 22 Sur 0 -- -- 98
2019-12-08 18:00:00 4.1 16 Sur 30 Sur 0 -- -- 97
2019-12-08 17:00:00 4.2 27 Sur 45 Sur 0 -- -- 96
2019-12-08 16:00:00 5.2 39 Sur 53 Sur 0 -- -- 89
2019-12-08 15:00:00 6.7 42 Sur 55 Sur 0 -- -- 82
2019-12-08 14:00:00 7.9 33 Sur 40 Sur 0 -- -- 77
2019-12-08 13:00:00 8.8 19 Sur 24 Sur 0 -- -- 73
2019-12-08 12:00:00 10.2 2 Nordeste 5 Sudeste 0 -- -- 87
2019-12-08 11:00:00 5.9 0 Calma 9 Noroeste 0.2 -- -- 94
2019-12-08 10:00:00 0.1 5 Norte 9 Norte 0 -- -- 100
2019-12-08 09:00:00 -0.8 5 Nordeste 13 Nordeste 0 -- -- 100
2019-12-08 08:00:00 -0.3 3 Norte 9 Nordeste 0 -- -- 100
2019-12-08 07:00:00 -0.5 5 Norte 8 Norte 0 -- -- 100
2019-12-08 06:00:00 -0.2 5 Norte 10 Norte 0 -- -- 100
2019-12-08 05:00:00 -0.6 7 Norte 11 Norte 0 -- -- 100
2019-12-08 04:00:00 -0.3 5 Norte 9 Noroeste 0 -- -- 100
2019-12-08 03:00:00 -0.1 6 Norte 9 Norte -- -- -- 100
2019-12-08 02:00:00 -0.3 5 Norte 9 Noroeste 0 -- -- 100
2019-12-08 01:00:00 0.1 5 Norte 10 Norte 0 -- -- 100
2019-12-08 00:00:00 0.1 8 Norte 10 Norte 0 -- -- 100
2019-12-07 23:00:00 0.8 4 Norte 9 Norte 0 -- -- 100
2019-12-07 22:00:00 1.7 5 Norte 8 Norte 0 -- -- 100
2019-12-07 21:00:00 2.5 3 Norte 5 Norte 0 -- -- 99
2019-12-07 20:00:00 3.6 0 Calma 10 Sur 0 -- -- 99
2019-12-07 19:00:00 4.4 5 Sur 12 Sur 0 -- -- 98
2019-12-07 18:00:00 5.2 11 Sur 36 Sur 0 -- -- 96
2019-12-07 17:00:00 6.6 30 Sur 38 Sur 0 -- -- 91
2019-12-07 16:00:00 9.7 30 Sur 36 Sur 0 -- -- 77
2019-12-07 15:00:00 12.6 12 Sur 18 Sur 0 -- -- 62
2019-12-07 14:00:00 14.3 2 Norte 7 Nordeste 0 -- -- 52
2019-12-07 13:00:00 11.6 5 Norte 9 Nordeste 0 -- -- 61
2019-12-07 12:00:00 9.6 3 Norte 8 Norte 0 -- -- 70
2019-12-07 11:00:00 5 5 Norte 9 Norte 0 -- -- 95
2019-12-07 10:00:00 0.8 3 Norte 5 Noroeste 0 -- -- 100
2019-12-07 09:00:00 0.3 4 Norte 9 Norte 0 -- -- 100
2019-12-07 08:00:00 0 4 Norte 8 Nordeste 0 -- -- 100
2019-12-07 07:00:00 0.2 5 Norte 10 Norte 0 -- -- 100
2019-12-07 06:00:00 1 4 Norte 10 Norte 0 -- -- 100
2019-12-07 05:00:00 1.1 5 Norte 10 Norte 0 -- -- 100
2019-12-07 04:00:00 1.5 5 Norte 10 Norte 0 -- -- 100
2019-12-07 03:00:00 2.4 2 Norte 8 Nordeste 0 -- -- 100
2019-12-07 02:00:00 2.6 5 Nordeste 9 Nordeste 0 -- -- 99
2019-12-07 01:00:00 3.2 5 Norte 8 Norte 0 -- -- 99
2019-12-07 00:00:00 4.3 7 Norte 10 Norte 0 -- -- 98
2019-12-06 23:00:00 5 4 Norte 12 Nordeste 0 -- -- 98
2019-12-06 22:00:00 5.8 4 Norte 12 Norte 0 -- -- 98
2019-12-06 21:00:00 5.7 7 Norte 10 Norte 0 -- -- 98
2019-12-06 20:00:00 5.9 4 Norte 8 Norte 0 -- -- 98
2019-12-06 19:00:00 6.3 0 Calma 25 Sur 0 -- -- 97
2019-12-06 18:00:00 6.9 20 Sur 39 Sur 0 -- -- 97
2019-12-06 17:00:00 7 30 Sur 44 Sur 0 -- -- 96
2019-12-06 16:00:00 7.7 36 Sur 45 Sur 0 -- -- 92
2019-12-06 15:00:00 11.3 32 Sur 41 Sur 0 -- -- 76
2019-12-06 14:00:00 13.8 8 Sur 17 Sur 0 -- -- 57
2019-12-06 13:00:00 15 0 Calma 8 Norte 0 -- -- 52
2019-12-06 12:00:00 12.4 3 Nordeste 6 Nordeste 0 -- -- 57
2019-12-06 11:00:00 9.2 4 Nordeste 6 Norte 0 -- -- 69
2019-12-06 10:00:00 2.4 4 Norte 8 Nordeste 0 -- -- 96
2019-12-06 09:00:00 2.1 3 Norte 6 Norte 0 -- -- 96
2019-12-06 08:00:00 2.8 3 Norte 10 Nordeste 0 -- -- 94
2019-12-06 07:00:00 3.4 0 Calma 5 Norte 0 -- -- 94
2019-12-06 06:00:00 3.9 4 Norte 6 Norte 0 -- -- 91
2019-12-06 05:00:00 4 4 Norte 8 Norte 0 -- -- 92
2019-12-06 04:00:00 3.3 4 Norte 7 Norte 0 -- -- 96
2019-12-06 03:00:00 3.2 4 Norte 9 Norte 0 -- -- 95
2019-12-06 02:00:00 3.7 3 Noroeste 8 Norte 0 -- -- 94
2019-12-06 01:00:00 3.7 5 Norte 9 Noroeste 0 -- -- 93
2019-12-06 00:00:00 4 3 Norte 9 Nordeste 0 -- -- 95
2019-12-05 23:00:00 3 6 Norte 8 Norte 0 -- -- 97
2019-12-05 22:00:00 4.1 5 Norte 8 Nordeste 0 -- -- 93
2019-12-05 21:00:00 5 5 Nordeste 9 Nordeste 0 -- -- 91
2019-12-05 20:00:00 5.7 6 Norte 11 Nordeste 0 -- -- 88
2019-12-05 19:00:00 7.1 5 Nordeste 9 Nordeste 0 -- -- 84
2019-12-05 18:00:00 9.3 3 Sudoeste 21 Sur 0 -- -- 82
2019-12-05 17:00:00 9.5 12 Sur 25 Sur 0 -- -- 87
2019-12-05 16:00:00 11.2 5 Norte 22 Norte 0 -- -- 60
2019-12-05 15:00:00 10.4 2 Sur 42 Sudeste 0 -- -- 82
2019-12-05 14:00:00 10.4 17 Sur 31 Sudeste 0 -- -- 82
2019-12-05 13:00:00 11.7 6 Noroeste 11 Noroeste 0 -- -- 67
2019-12-05 12:00:00 10.7 4 Norte 9 Norte 0 -- -- 76
2019-12-05 11:00:00 8.5 4 Norte 10 Nordeste 0 -- -- 86
2019-12-05 10:00:00 7.2 3 Nordeste 10 Nordeste 0 -- -- 91
2019-12-05 09:00:00 6.7 4 Nordeste 12 Nordeste 0 -- -- 92
2019-12-05 08:00:00 6.5 6 Nordeste 8 Norte 0 -- -- 91
2019-12-05 07:00:00 7 5 Nordeste 9 Norte 0 -- -- 88
2019-12-05 06:00:00 7 3 Nordeste 10 Nordeste 0 -- -- 91
2019-12-05 05:00:00 7 5 Norte 9 Nordeste 0 -- -- 91
2019-12-05 04:00:00 7.4 4 Norte 8 Nordeste 0 -- -- 88
2019-12-05 03:00:00 6.6 3 Nordeste 9 Norte 0 -- -- 95
2019-12-05 02:00:00 6.9 6 Nordeste 11 Norte 0.2 -- -- 93
2019-12-05 01:00:00 7.1 5 Norte 12 Noroeste 0 -- -- 92
2019-12-05 00:00:00 7.4 5 Norte 17 Noroeste 0.2 -- -- 89
2019-12-04 23:00:00 8 6 Norte 16 Norte 0 -- -- 83
2019-12-04 22:00:00 8.1 5 Noroeste 18 Norte 0 -- -- 82
2019-12-04 21:00:00 7.6 10 Norte 21 Norte 0.2 -- -- 86
2019-12-04 20:00:00 7.6 14 Norte 33 Nordeste 0.2 -- -- 88
2019-12-04 19:00:00 7.9 12 Norte 31 Norte 0 -- -- 87
2019-12-04 18:00:00 7.7 10 Norte 19 Norte 0.4 -- -- 89
2019-12-04 17:00:00 8.8 2 Sudeste 7 Nordeste 0.8 -- -- 83
2019-12-04 16:00:00 8.9 3 Noroeste 9 Nordeste 0 -- -- 79
2019-12-04 15:00:00 7.6 4 Norte 8 Norte 0 -- -- 84
2019-12-04 14:00:00 7.2 5 Norte 8 Norte 0 -- -- 84
2019-12-04 13:00:00 6.9 5 Norte 8 Nordeste 0 -- -- 82
2019-12-04 12:00:00 5.7 5 Nordeste 8 Nordeste 0 -- -- 86
2019-12-04 11:00:00 2.9 5 Norte 11 Nordeste 0 -- -- 93
2019-12-04 10:00:00 1.8 8 Norte 10 Nordeste 0 -- -- 96
2019-12-04 09:00:00 0.6 6 Norte 10 Nordeste 0 -- -- 99
2019-12-04 08:00:00 0.2 6 Norte 14 Norte 0 -- -- 100
2019-12-04 07:00:00 -0.4 9 Norte 12 Norte 0 -- -- 100
2019-12-04 06:00:00 -0.4 8 Norte 10 Norte 0 -- -- 99
2019-12-04 05:00:00 -0.1 6 Norte 10 Norte 0 -- -- 99
2019-12-04 04:00:00 0 7 Norte 9 Norte 0 -- -- 99
2019-12-04 03:00:00 0.5 4 Norte 12 Norte 0 -- -- 98
2019-12-04 02:00:00 0.8 8 Norte 10 Norte 0 -- -- 98
2019-12-04 01:00:00 1 6 Norte 9 Norte 0 -- -- 97
2019-12-04 00:00:00 1.3 2 Norte 9 Norte 0 -- -- 99
2019-12-03 23:00:00 1 6 Norte 8 Norte 0 -- -- 98
2019-12-03 22:00:00 0.9 6 Norte 9 Norte 0 -- -- 98
2019-12-03 21:00:00 1.6 4 Norte 7 Norte 0 -- -- 97
2019-12-03 20:00:00 2.3 5 Norte 8 Norte 0 -- -- 93
2019-12-03 19:00:00 3.3 5 Norte 8 Norte 0 -- -- 90
2019-12-03 18:00:00 5.1 5 Nordeste 9 Norte 0 -- -- 80
2019-12-03 17:00:00 7.3 4 Norte 17 Sur 0 -- -- 72
2019-12-03 16:00:00 11.1 11 Sur 37 Sur 0 -- -- 58
2019-12-03 15:00:00 11 26 Sur 37 Sur 0 -- -- 59
2019-12-03 14:00:00 11.9 9 Sur 19 Sur 0 -- -- 52
2019-12-03 13:00:00 10.7 0 Calma 9 Norte 0 -- -- 53
2019-12-03 12:00:00 7.8 6 Nordeste 10 Nordeste 0.2 -- -- 63
2019-12-03 11:00:00 1.7 5 Norte 9 Norte 0 -- -- 95
2019-12-03 10:00:00 -1.5 4 Norte 6 Norte 0 -- -- 99
2019-12-03 09:00:00 -1.9 3 Norte 6 Nordeste 0 -- -- 99
2019-12-03 08:00:00 -2.1 4 Norte 5 Norte 0 -- -- 99
2019-12-03 07:00:00 -1.5 3 Norte 5 Norte 0 -- -- 100
2019-12-03 06:00:00 -1.1 3 Norte 5 Norte 0 -- -- 98
2019-12-03 05:00:00 -0.5 2 Norte 8 Nordeste 0 -- -- 100
2019-12-03 04:00:00 -0.6 3 Norte 5 Norte 0 -- -- 100
2019-12-03 03:00:00 0.1 4 Norte 9 Nordeste 0 -- -- 100
2019-12-03 02:00:00 -0.1 5 Norte 9 Norte 0 -- -- 100
2019-12-03 01:00:00 0.1 4 Norte 8 Norte 0 -- -- 100
2019-12-03 00:00:00 0.7 4 Norte 6 Norte 0 -- -- 100
2019-12-02 23:00:00 0.8 4 Norte 10 Norte 0 -- -- 100
2019-12-02 22:00:00 1.1 5 Norte 9 Norte 0 -- -- 100
2019-12-02 21:00:00 1.8 4 Norte 8 Norte 0 -- -- 99
2019-12-02 20:00:00 2.6 4 Norte 8 Sur 0 -- -- 98
2019-12-02 19:00:00 4.3 4 Sur 24 Sur 0 -- -- 97
2019-12-02 18:00:00 5.2 19 Sur 37 Sur 0 -- -- 95
2019-12-02 17:00:00 6.3 24 Sur 46 Sur 0 -- -- 90
2019-12-02 16:00:00 9 41 Sur 47 Sur 0 -- -- 77
2019-12-02 15:00:00 13 24 Sur 33 Sur 0 -- -- 58
2019-12-02 14:00:00 16.7 2 Norte 5 Nordeste 0 -- -- 38
2019-12-02 13:00:00 15.2 3 Nordeste 6 Nordeste 0 -- -- 43
2019-12-02 12:00:00 12 4 Nordeste 6 Nordeste 0 -- -- 54
2019-12-02 11:00:00 6.7 4 Norte 12 Norte 0 -- -- 91
2019-12-02 10:00:00 0.1 7 Norte 12 Norte 0 -- -- 100
2019-12-02 09:00:00 -0.1 5 Norte 11 Norte 0 -- -- 100
2019-12-02 08:00:00 0.3 5 Norte 8 Norte 0.2 -- -- 100
2019-12-02 07:00:00 0.6 5 Norte 7 Nordeste 0 -- -- 100
2019-12-02 06:00:00 0.6 5 Norte 8 Noroeste 0 -- -- 100
2019-12-02 05:00:00 0.5 6 Norte 8 Norte 0 -- -- 100
2019-12-02 04:00:00 2.2 3 Norte 9 Norte 0 -- -- 100
2019-12-02 03:00:00 1.4 6 Norte 7 Norte 0 -- -- 100
2019-12-02 02:00:00 1.9 4 Norte 6 Nordeste 0 -- -- 100
2019-12-02 01:00:00 2.3 4 Norte 7 Norte 0 -- -- 100
2019-12-02 00:00:00 2.9 5 Norte 7 Norte 0 -- -- 100
2019-12-01 23:00:00 3.6 4 Norte 5 Norte 0 -- -- 98
2019-12-01 22:00:00 3.8 3 Norte 6 Nordeste 0 -- -- 98
2019-12-01 21:00:00 4.2 4 Norte 7 Norte 0 -- -- 97
2019-12-01 20:00:00 4.5 3 Norte 8 Nordeste 0 -- -- 95
2019-12-01 19:00:00 5.2 6 Nordeste 11 Sur 0 -- -- 92
2019-12-01 18:00:00 8 11 Sur 31 Sur 0 -- -- 83
2019-12-01 17:00:00 8.8 23 Sur 28 Sur 0 -- -- 80
2019-12-01 16:00:00 9.5 23 Sur 33 Sur 0 -- -- 77
2019-12-01 15:00:00 11.3 25 Sur 33 Sur 0 -- -- 66
2019-12-01 14:00:00 12.9 23 Sur 30 Sur 0 -- -- 63
2019-12-01 13:00:00 11.3 21 Sur 29 Sur 0 -- -- 76
2019-12-01 12:00:00 10.1 22 Sur 28 Sur 0 -- -- 82
2019-12-01 11:00:00 7.3 10 Sur 18 Sudeste 0 -- -- 91
2019-12-01 10:00:00 4.6 0 Calma 9 Norte 0 -- -- 99
2019-12-01 09:00:00 3.6 4 Nordeste 8 Norte 0 -- -- 98
2019-12-01 08:00:00 4.1 2 Norte 6 Norte 0 -- -- 98
2019-12-01 07:00:00 5.5 0 Calma 9 Nordeste 0 -- -- 96
2019-12-01 06:00:00 7.2 5 Sudoeste 16 Sur 0 -- -- 90
2019-12-01 05:00:00 7.3 0 Calma 12 Noroeste 0 -- -- 95
2019-12-01 04:00:00 7.8 6 Noroeste 21 Sudoeste 0.4 -- -- 89
2019-12-01 03:00:00 9.3 13 Sur 37 Sur 0 -- -- 78
2019-12-01 02:00:00 9.5 17 Sur 24 Sur 0 -- -- 95
2019-12-01 01:00:00 9.7 10 Sur 29 Sur 0 -- -- 94
2019-12-01 00:00:00 10.5 15 Sur 31 Sur 0.8 -- -- 89
2019-11-30 23:00:00 10 17 Sur 32 Sur 0 -- -- 86
2019-11-30 22:00:00 9.1 4 Sur 8 Sudeste 0 -- -- 89
2019-11-30 21:00:00 8.3 0 Calma 4 Sudoeste 0 -- -- 91
2019-11-30 20:00:00 8.3 2 Nordeste 5 Norte 0 -- -- 90
2019-11-30 19:00:00 8.8 0 Calma 4 Norte 0 -- -- 88
2019-11-30 18:00:00 9.7 0 Calma 10 Sur 0 -- -- 82
2019-11-30 17:00:00 11.1 3 Sur 18 Sur 0 -- -- 74
2019-11-30 16:00:00 14.4 12 Sur 24 Sudeste 0 -- -- 60
2019-11-30 15:00:00 16 3 Nordeste 9 Sur 0 -- -- 52
2019-11-30 14:00:00 16.1 3 Nordeste 5 Norte 0 -- -- 47
2019-11-30 13:00:00 14.3 3 Nordeste 13 Norte 0 -- -- 54
2019-11-30 12:00:00 10.6 6 Norte 9 Norte 0 -- -- 68
2019-11-30 11:00:00 6 3 Norte 10 Nordeste 0 -- -- 99
2019-11-30 10:00:00 2.6 6 Norte 12 Noroeste 0 -- -- 100
2019-11-30 09:00:00 1.9 2 Norte 11 Norte 0 -- -- 100
2019-11-30 08:00:00 1.4 4 Norte 9 Norte 0 -- -- 100
2019-11-30 07:00:00 2 4 Norte 8 Norte 0 -- -- 100
2019-11-30 06:00:00 1.5 4 Norte 8 Norte 0 -- -- 100
2019-11-30 05:00:00 2 4 Norte 8 Norte 0 -- -- 100
2019-11-30 04:00:00 2.4 4 Norte 8 Noroeste 0 -- -- 100
2019-11-30 03:00:00 3 5 Norte 7 Norte 0 -- -- 100
2019-11-30 02:00:00 3.8 4 Norte 9 Norte 0 -- -- 99
2019-11-30 01:00:00 3.5 6 Norte 8 Norte 0 -- -- 100
2019-11-30 00:00:00 4.6 0 Calma 5 Norte 0 -- -- 99
2019-11-29 23:00:00 5.2 0 Calma 4 Norte 0 -- -- 98
2019-11-29 22:00:00 5.5 3 Norte 5 Norte 0 -- -- 98
2019-11-29 21:00:00 6.4 3 Norte 5 Norte 0 -- -- 96
2019-11-29 20:00:00 8.3 0 Calma 8 Nordeste 0 -- -- 89
2019-11-29 19:00:00 9.5 4 Nordeste 19 Sur 0 -- -- 84
2019-11-29 18:00:00 12 16 Sur 27 Sur 0 -- -- 76
2019-11-29 17:00:00 13 21 Sur 32 Sur 0 -- -- 77
2019-11-29 16:00:00 15.5 22 Sur 32 Sur 0 -- -- 69
2019-11-29 15:00:00 15.7 28 Sur 35 Sur 0 -- -- 68
2019-11-29 14:00:00 18.3 18 Sur 24 Sur 0 -- -- 56
2019-11-29 13:00:00 19.9 4 Sudeste 8 Sudeste 0 -- -- 45
2019-11-29 12:00:00 17.5 2 Nordeste 10 Nordeste 0 -- -- 52
2019-11-29 11:00:00 14.2 4 Nordeste 7 Nordeste 0 -- -- 63
2019-11-29 10:00:00 6.7 4 Nordeste 6 Norte 0 -- -- 94
2019-11-29 09:00:00 6 2 Norte 8 Norte 0 -- -- 97
2019-11-29 08:00:00 5.9 5 Norte 10 Norte 0 -- -- 98
2019-11-29 07:00:00 5.8 7 Norte 9 Norte 0 -- -- 97
2019-11-29 06:00:00 7 2 Norte 8 Norte 0 -- -- 95
2019-11-29 05:00:00 7.5 4 Norte 9 Norte 0 -- -- 93
2019-11-29 04:00:00 9.4 0 Calma 10 Sur 0 -- -- 84
2019-11-29 03:00:00 9.8 7 Norte 18 Sudoeste 0 -- -- 82
2019-11-29 02:00:00 12.1 6 Sudoeste 19 Sur 0 -- -- 72
2019-11-29 01:00:00 12 10 Sudoeste 25 Sur 0 -- -- 71
2019-11-29 00:00:00 12.1 16 Sur 27 Sur 0 -- -- 72
2019-11-28 23:00:00 12.3 10 Sur 25 Sudeste 0 -- -- 70
2019-11-28 22:00:00 11.6 8 Sur 32 Sur 0 -- -- 78
2019-11-28 21:00:00 12.2 5 Sur 14 Sur 0 -- -- 73
2019-11-28 20:00:00 11.6 6 Sur 14 Sur 0 -- -- 76
2019-11-28 19:00:00 12.5 4 Nordeste 13 Este 0 -- -- 69
2019-11-28 18:00:00 12.2 8 Sur 17 Sur 0 -- -- 71
2019-11-28 17:00:00 13.7 4 Este 15 Sur 0 -- -- 62
2019-11-28 16:00:00 14 7 Sur 22 Sudeste 0 -- -- 62
2019-11-28 15:00:00 14.3 11 Sur 24 Sudeste 0 -- -- 59
2019-11-28 14:00:00 15.3 8 Sur 19 Sur 0 -- -- 55
2019-11-28 13:00:00 16.3 3 Nordeste 8 Nordeste 0 -- -- 56
2019-11-28 12:00:00 16.4 3 Nordeste 9 Norte 0 -- -- 53
2019-11-28 11:00:00 12.1 4 Norte 12 Norte 0 -- -- 71
2019-11-28 10:00:00 7.7 3 Norte 5 Norte 0 -- -- 89
2019-11-28 09:00:00 6.1 4 Norte 6 Nordeste 0 -- -- 93
2019-11-28 08:00:00 5.9 3 Norte 6 Norte 0 -- -- 92
2019-11-28 07:00:00 6.7 3 Norte 12 Norte 0 -- -- 90
2019-11-28 06:00:00 6.6 6 Norte 8 Nordeste 0 -- -- 92
2019-11-28 05:00:00 6.7 5 Norte 10 Noroeste 0 -- -- 90
2019-11-28 04:00:00 7.2 6 Norte 15 Noroeste 0 -- -- 88
2019-11-28 03:00:00 7.9 6 Norte 17 Sudoeste 0 -- -- 85
2019-11-28 02:00:00 9.1 4 Norte 13 Este 0 -- -- 79
2019-11-28 01:00:00 8.3 4 Norte 12 Norte 0 -- -- 82
2019-11-28 00:00:00 8.5 2 Este 10 Norte 0 -- -- 81
2019-11-27 23:00:00 7.9 5 Norte 10 Norte 0 -- -- 85
2019-11-27 22:00:00 8.5 4 Norte 8 Norte 0 -- -- 82
2019-11-27 21:00:00 9.7 6 Norte 15 Sur 0 -- -- 76
2019-11-27 20:00:00 11.1 8 Sur 22 Sur 0 -- -- 68
2019-11-27 19:00:00 10.8 14 Sur 21 Sur 0 -- -- 71
2019-11-27 18:00:00 11.1 11 Sur 21 Sur 0 -- -- 69
2019-11-27 17:00:00 12.3 9 Sur 30 Sur 0 -- -- 63
2019-11-27 16:00:00 14.4 9 Sur 21 Sur 0 -- -- 54
2019-11-27 15:00:00 14 11 Sudoeste 22 Sudoeste 0 -- -- 56
2019-11-27 14:00:00 15.2 8 Sur 17 Sur 0 -- -- 53
2019-11-27 06:00:00 -- -- -- -- -- -- -- -- --
2019-11-27 05:00:00 8.9 5 Sudoeste 16 Sur 0 -- -- 99
2019-11-27 04:00:00 7.2 4 Noroeste 10 Nordeste 0.8 -- -- 100
2019-11-27 03:00:00 6.9 2 Norte 8 Norte 0 -- -- 99
2019-11-27 02:00:00 7.2 0 Calma 8 Norte 0 -- -- 98
2019-11-27 01:00:00 6.9 4 Norte 6 Noroeste 0 -- -- 98
2019-11-27 00:00:00 6.9 0 Calma 9 Norte 0 -- -- 98
2019-11-26 23:00:00 6.9 3 Noroeste 6 Norte 0.4 -- -- 96
2019-11-26 22:00:00 7.5 0 Calma 9 Norte 0.2 -- -- 91
2019-11-26 21:00:00 6.8 8 Nordeste 10 Nordeste 0 -- -- 92
2019-11-26 20:00:00 6.8 3 Noroeste 10 Nordeste 0 -- -- 95
2019-11-26 19:00:00 7.2 8 Norte 10 Norte 0 -- -- 92
2019-11-26 18:00:00 9.1 3 Este 4 Sudeste 0 -- -- 85
2019-11-26 17:00:00 11.1 3 Sur 7 Sur 0 -- -- 78
2019-11-26 16:00:00 13.2 6 Sur 21 Sudeste 0 -- -- 70
2019-11-26 15:00:00 12.5 12 Sur 27 Sudeste 0 -- -- 67
2019-11-26 14:00:00 15.1 5 Sur 9 Sudeste 0 -- -- 50
2019-11-26 13:00:00 15.6 0 Calma 8 Nordeste 0 -- -- 50
2019-11-26 12:00:00 12.2 7 Nordeste 14 Norte 0 -- -- 63
2019-11-26 11:00:00 9.8 3 Nordeste 10 Norte 0 -- -- 91
2019-11-26 10:00:00 3.6 4 Norte 13 Noroeste 0 -- -- 100
2019-11-26 09:00:00 2.1 3 Noroeste 11 Nordeste 0 -- -- 100
2019-11-26 08:00:00 1.1 4 Norte 14 Norte 0 -- -- 100
2019-11-26 07:00:00 0.3 8 Nordeste 11 Nordeste 0 -- -- 100
2019-11-26 06:00:00 0.8 5 Norte 9 Norte 0 -- -- 100
2019-11-26 05:00:00 0.8 5 Norte 8 Nordeste 0 -- -- 100
2019-11-26 04:00:00 1 5 Norte 10 Norte 0 -- -- 100
2019-11-26 03:00:00 1.5 6 Norte 10 Norte 0 -- -- 100
2019-11-26 02:00:00 1.7 5 Norte 8 Norte 0 -- -- 100
2019-11-26 01:00:00 1.8 4 Norte 7 Norte 0 -- -- 100
2019-11-26 00:00:00 2.5 4 Norte 8 Norte 0 -- -- 100
2019-11-25 23:00:00 2.7 6 Norte 9 Norte 0 -- -- 99
2019-11-25 22:00:00 3.1 5 Norte 6 Norte 0 -- -- 98
2019-11-25 21:00:00 4.1 4 Norte 6 Norte 0 -- -- 97
2019-11-25 20:00:00 5.4 0 Calma 4 Nordeste 0 -- -- 93
2019-11-25 19:00:00 6.3 0 Calma 5 Nordeste 0 -- -- 90
2019-11-25 18:00:00 8.2 0 Calma 25 Sur 0 -- -- 83
2019-11-25 17:00:00 9.9 18 Sur 35 Sur 0 -- -- 76
2019-11-25 16:00:00 11.2 23 Sur 33 Sur 0 -- -- 67
2019-11-25 15:00:00 12.9 27 Sur 36 Sur 0 -- -- 58
2019-11-25 14:00:00 12 18 Sur 22 Sur 0 -- -- 57
2019-11-25 13:00:00 13.5 3 Norte 9 Nordeste 0 -- -- 46
2019-11-25 12:00:00 12.3 7 Nordeste 13 Nordeste 0 -- -- 49
2019-11-25 11:00:00 9.8 6 Nordeste 9 Norte 0 -- -- 57
2019-11-25 10:00:00 1.8 4 Norte 11 Nordeste 0 -- -- 88
2019-11-25 09:00:00 1 6 Norte 12 Norte 0 -- -- 95
2019-11-25 08:00:00 0.6 8 Norte 14 Norte 0 -- -- 94
2019-11-25 07:00:00 0.5 5 Norte 9 Noroeste 0 -- -- 96
2019-11-25 06:00:00 1.3 5 Norte 13 Nordeste 0 -- -- 94
2019-11-25 05:00:00 1.4 4 Norte 13 Norte 0 -- -- 94
2019-11-25 04:00:00 1.3 8 Norte 13 Norte 0 -- -- 95
2019-11-25 03:00:00 1.9 3 Nordeste 9 Norte 0 -- -- 94
2019-11-25 02:00:00 2.4 4 Norte 10 Norte 0 -- -- 96
2019-11-25 01:00:00 2.7 6 Norte 13 Oeste 0 -- -- 96
2019-11-25 00:00:00 2.5 7 Nordeste 10 Nordeste 0 -- -- 97
2019-11-24 23:00:00 2.4 8 Norte 10 Norte 0 -- -- 97
2019-11-24 22:00:00 3.4 4 Norte 8 Norte 0 -- -- 96
2019-11-24 21:00:00 5.1 2 Sur 8 Sur 0 -- -- 89
2019-11-24 20:00:00 5 2 Nordeste 9 Sur 0 -- -- 86
2019-11-24 19:00:00 7.5 6 Sur 26 Sur 0 -- -- 86
2019-11-24 18:00:00 9.2 24 Sur 35 Sur 0 -- -- 79
2019-11-24 17:00:00 10.3 21 Sur 38 Sur 0 -- -- 71
2019-11-24 16:00:00 12.6 30 Sur 41 Sur 0 -- -- 63
2019-11-24 15:00:00 13.2 35 Sur 50 Sur 0 -- -- 59
2019-11-24 14:00:00 17.3 10 Sur 31 Norte 0 -- -- 42
2019-11-24 13:00:00 15.9 21 Norte 36 Norte 0 -- -- 34
2019-11-24 12:00:00 13.7 5 Norte 10 Nordeste 0 -- -- 46
2019-11-24 11:00:00 11.5 6 Norte 18 Nordeste 0 -- -- 51
2019-11-24 10:00:00 2.4 11 Norte 15 Norte 0 -- -- 87
2019-11-24 09:00:00 0.7 8 Norte 14 Norte 0 -- -- 98
2019-11-24 08:00:00 0.4 7 Norte 12 Norte 0 -- -- 97
2019-11-24 07:00:00 1.8 3 Sur 10 Norte 0 -- -- 92
2019-11-24 06:00:00 2.2 6 Sur 10 Nordeste 0 -- -- 91
2019-11-24 05:00:00 2.5 0 Calma 14 Nordeste 0 -- -- 87
2019-11-24 04:00:00 2.5 5 Norte 15 Noroeste 0 -- -- 85
2019-11-24 03:00:00 2.9 9 Norte 13 Norte 0 -- -- 88
2019-11-24 02:00:00 3.9 7 Norte 14 Nordeste 0 -- -- 83
2019-11-24 01:00:00 4.8 7 Norte 16 Norte 0 -- -- 79
2019-11-24 00:00:00 4.3 8 Norte 17 Nordeste 0 -- -- 85
2019-11-23 23:00:00 4 9 Norte 18 Norte 0 -- -- 93
2019-11-23 22:00:00 5.1 0 Calma 8 Nordeste 0 -- -- 95
2019-11-23 21:00:00 5.4 3 Noroeste 11 Nordeste 0 -- -- 96
2019-11-23 20:00:00 5.7 6 Norte 13 Nordeste 0 -- -- 92
2019-11-23 19:00:00 6.9 5 Norte 17 Oeste 0 -- -- 85
2019-11-23 18:00:00 8.5 10 Oeste 32 Sudoeste 0 -- -- 73
2019-11-23 17:00:00 9.1 9 Oeste 26 Sudoeste 0.2 -- -- 72
2019-11-23 16:00:00 9.5 9 Sudoeste 27 Sudoeste 0 -- -- 72
2019-11-23 15:00:00 10.1 14 Sudoeste 27 Sudoeste 0 -- -- 72
2019-11-23 14:00:00 11 9 Sudeste 24 Sur 0 -- -- 74
2019-11-23 13:00:00 10.3 5 Sur 18 Sur 0 -- -- 89
2019-11-23 12:00:00 9 6 Sur 11 Sudeste 0 -- -- 97
2019-11-23 11:00:00 9.1 3 Norte 7 Nordeste 0 -- -- 98
2019-11-23 10:00:00 8 5 Nordeste 9 Nordeste 0 -- -- 99
2019-11-23 09:00:00 7.2 0 Calma 9 Norte 0 -- -- 100
2019-11-23 08:00:00 7.1 8 Sur 13 Sur 0.2 -- -- 99
2019-11-23 07:00:00 7.4 5 Sur 26 Sur 0 -- -- 100
2019-11-23 06:00:00 7.5 11 Sur 20 Sur 0 -- -- 99
2019-11-23 05:00:00 7.6 2 Sur 18 Sur 0 -- -- 99
2019-11-23 04:00:00 8.3 13 Sur 23 Sur 0 -- -- 97
2019-11-23 03:00:00 9.2 5 Sur 16 Sur 0.2 -- -- 94
2019-11-23 02:00:00 10 15 Sur 39 Sur 1.2 -- -- 95
2019-11-23 01:00:00 10.8 15 Sur 44 Sudoeste 0.8 -- -- 95
2019-11-23 00:00:00 10.1 22 Sudoeste 38 Sudoeste 7.6 -- -- 100
2019-11-22 23:00:00 8.4 3 Norte 19 Nordeste 13 -- -- 99
2019-11-22 22:00:00 9.1 8 Nordeste 33 Sudeste 5.8 -- -- 96
2019-11-22 21:00:00 9.6 14 Sur 50 Sur 4.4 -- -- 94
2019-11-22 20:00:00 9.1 15 Sur 37 Sudeste 8.4 -- -- 95
2019-11-22 19:00:00 8.3 3 Norte 23 Sur 4.8 -- -- 97
2019-11-22 18:00:00 8.3 6 Sur 42 Sur 2.2 -- -- 96
2019-11-22 17:00:00 8.3 17 Sur 32 Sur 1.6 -- -- 94
2019-11-22 16:00:00 5.6 5 Sur 17 Sudoeste 0.8 -- -- 95
2019-11-22 15:00:00 5.9 3 Norte 5 Norte 0 -- -- 83
2019-11-22 14:00:00 6.8 3 Nordeste 5 Nordeste 0 -- -- 73
2019-11-22 13:00:00 6.3 2 Norte 6 Norte 0 -- -- 75
2019-11-22 12:00:00 4.9 4 Norte 6 Nordeste 0 -- -- 80
2019-11-22 11:00:00 5 4 Norte 7 Norte 0 -- -- 78
2019-11-22 10:00:00 3.7 4 Norte 8 Norte 0 -- -- 88
2019-11-22 09:00:00 1.8 3 Norte 10 Norte 0 -- -- 96
2019-11-22 08:00:00 0.9 6 Norte 8 Norte 0 -- -- 98
2019-11-22 07:00:00 0.4 5 Norte 9 Noroeste 0 -- -- 99
2019-11-22 06:00:00 0.4 4 Norte 10 Noroeste 0 -- -- 99
2019-11-22 05:00:00 -0.4 6 Norte 10 Noroeste 0 -- -- 99
2019-11-22 04:00:00 -0.6 6 Norte 10 Norte 0 -- -- 100
2019-11-22 03:00:00 -0.9 4 Norte 8 Norte 0 -- -- 99
2019-11-22 02:00:00 0.2 4 Noroeste 9 Norte 0 -- -- 100
2019-11-22 01:00:00 -0.1 6 Norte 7 Norte 0 -- -- 98
2019-11-22 00:00:00 0.5 3 Norte 6 Norte 0 -- -- 97
2019-11-21 23:00:00 1.3 2 Norte 6 Noroeste 0 -- -- 95
2019-11-21 22:00:00 2.2 5 Norte 7 Norte 0 -- -- 92
2019-11-21 21:00:00 2.3 6 Norte 9 Nordeste 0 -- -- 91
2019-11-21 20:00:00 3.2 4 Norte 6 Nordeste 0 -- -- 90
2019-11-21 19:00:00 5.7 3 Sudoeste 19 Sur 0 -- -- 84
2019-11-21 18:00:00 6.7 16 Sur 31 Sur 0 -- -- 83
2019-11-21 17:00:00 7.7 24 Sur 30 Sur 0 -- -- 78
2019-11-21 16:00:00 9.7 17 Sur 32 Sur 0 -- -- 67
2019-11-21 15:00:00 11.6 21 Sur 36 Sur 0 -- -- 59
2019-11-21 14:00:00 11.9 13 Sudeste 23 Sur 0 -- -- 51
2019-11-21 13:00:00 12.4 4 Este 9 Nordeste 0 -- -- 43
2019-11-21 12:00:00 8.3 4 Norte 9 Nordeste 0 -- -- 55
2019-11-21 11:00:00 4.9 5 Norte 7 Norte 0.2 -- -- 74
2019-11-21 10:00:00 -0.5 3 Noroeste 13 Norte 0 -- -- 96
2019-11-21 09:00:00 -1.8 2 Norte 6 Norte 0 -- -- 98
2019-11-21 08:00:00 -- -- -- -- -- -- -- -- --
2019-11-21 07:00:00 -- -- -- -- -- -- -- -- --
2019-11-21 06:00:00 -- -- -- -- -- -- -- -- --
2019-11-21 05:00:00 -- -- -- -- -- -- -- -- --
2019-11-21 04:00:00 -- -- -- -- -- -- -- -- --
2019-11-21 03:00:00 -- -- -- -- -- -- -- -- --
2019-11-21 02:00:00 -- -- -- -- -- -- -- -- --
2019-11-21 01:00:00 -- -- -- -- -- -- -- -- --
2019-11-21 00:00:00 -- -- -- -- -- -- -- -- --
2019-11-20 23:00:00 -- -- -- -- -- -- -- -- --
2019-11-20 22:00:00 -- -- -- -- -- -- -- -- --
2019-11-20 21:00:00 -- -- -- -- -- -- -- -- --
2019-11-20 20:00:00 1.9 3 Norte 4 Norte 0 -- -- 88
2019-11-20 19:00:00 3.1 4 Nordeste 8 Sur 0 -- -- 84
2019-11-20 18:00:00 6.3 4 Sur 19 Sudeste 0 -- -- 68
2019-11-20 17:00:00 7.7 15 Sur 31 Sur 0 -- -- 66
2019-11-20 16:00:00 9.2 26 Sur 33 Sur 0 -- -- 59
2019-11-20 15:00:00 12.2 5 Sur 11 Sur 0 -- -- 42
2019-11-20 14:00:00 11.5 3 Norte 6 Nordeste 0 -- -- 39
2019-11-20 13:00:00 8.4 3 Norte 7 Nordeste 0 -- -- 54
2019-11-20 12:00:00 4.4 4 Norte 8 Norte 0 -- -- 73
2019-11-20 11:00:00 1.8 3 Norte 6 Nordeste 0 -- -- 87
2019-11-20 10:00:00 -2 4 Norte 5 Norte 0 -- -- 98
2019-11-20 09:00:00 -3.2 3 Norte 6 Noroeste 0 -- -- 99
2019-11-20 08:00:00 -3.5 4 Norte 9 Norte 0 -- -- 100
2019-11-20 07:00:00 -3.8 7 Norte 9 Norte 0 -- -- 99
2019-11-20 06:00:00 -3.6 5 Norte 6 Norte 0 -- -- 99
2019-11-20 05:00:00 -3 3 Norte 5 Norte 0 -- -- 99
2019-11-20 04:00:00 -3.1 3 Norte 7 Norte 0 -- -- 99
2019-11-20 03:00:00 -2.8 2 Norte 8 Norte 0 -- -- 100
2019-11-20 02:00:00 -2.4 5 Norte 9 Norte 0 -- -- 98
2019-11-20 01:00:00 -2.3 4 Nordeste 8 Norte 0 -- -- 99
2019-11-20 00:00:00 -1.7 3 Norte 8 Norte 0 -- -- 98
2019-11-19 23:00:00 -1.6 6 Nordeste 9 Norte 0 -- -- 97
2019-11-19 22:00:00 -1.1 4 Nordeste 8 Nordeste 0 -- -- 96
2019-11-19 21:00:00 -0.4 4 Norte 12 Sur 0 -- -- 93
2019-11-19 20:00:00 2 2 Sudeste 27 Sur 0 -- -- 89
2019-11-19 19:00:00 3.4 20 Sur 28 Sur 0 -- -- 83
2019-11-19 18:00:00 4.5 23 Sur 44 Sur 0 -- -- 75
2019-11-19 17:00:00 5.5 32 Sur 48 Sur 0 -- -- 71
2019-11-19 16:00:00 7.8 36 Sur 46 Sur 0 -- -- 64
2019-11-19 15:00:00 8.6 33 Sur 44 Sur 0 -- -- 60
2019-11-19 14:00:00 9 31 Sur 41 Sur 0 -- -- 58
2019-11-19 13:00:00 9.8 10 Sur 18 Sur 0 -- -- 47
2019-11-19 12:00:00 7.5 9 Sur 14 Sur 0 -- -- 47
2019-11-19 11:00:00 6.8 6 Norte 13 Nordeste 0 -- -- 48
2019-11-19 10:00:00 -0.2 3 Nordeste 5 Norte 0 -- -- 70
2019-11-19 09:00:00 -1.2 0 Calma 8 Nordeste 0 -- -- 78
2019-11-19 08:00:00 -2.9 4 Norte 13 Nordeste 0 -- -- 88
2019-11-19 07:00:00 -2.1 3 Norte 10 Nordeste 0 -- -- 83
2019-11-19 06:00:00 -2.3 5 Norte 8 Nordeste 0 -- -- 85
2019-11-19 05:00:00 -2.1 4 Nordeste 10 Norte 0 -- -- 83
2019-11-19 04:00:00 -1.1 5 Norte 10 Nordeste 0 -- -- 78
2019-11-19 03:00:00 -0.8 4 Norte 9 Nordeste 0 -- -- 77
2019-11-19 02:00:00 -0.1 3 Norte 10 Norte 0 -- -- 74
2019-11-19 01:00:00 -0.2 9 Norte 17 Norte 0 -- -- 76
2019-11-19 00:00:00 0.3 10 Norte 19 Norte 0 -- -- 77
2019-11-18 23:00:00 2.5 16 Norte 29 Norte 0 -- -- 65
2019-11-18 22:00:00 0.6 9 Norte 14 Norte 0 -- -- 97
2019-11-18 21:00:00 1.4 4 Norte 10 Nordeste 0 -- -- 99
2019-11-18 20:00:00 1.8 5 Nordeste 8 Nordeste 0 -- -- 97
2019-11-18 19:00:00 4.1 0 Calma 26 Sur 0 -- -- 93
2019-11-18 18:00:00 5.8 22 Sur 42 Sudeste 0 -- -- 87
2019-11-18 17:00:00 6.8 33 Sur 42 Sur 0 -- -- 83
2019-11-18 16:00:00 9.1 32 Sur 46 Sur 0 -- -- 73
2019-11-18 15:00:00 10.1 35 Sur 50 Sur 0 -- -- 69
2019-11-18 14:00:00 11.6 34 Sur 41 Sur 0 -- -- 63
2019-11-18 13:00:00 15.1 5 Sudeste 11 Sudeste 0 -- -- 43
2019-11-18 12:00:00 12.7 3 Este 12 Nordeste 0 -- -- 50
2019-11-18 11:00:00 9.5 3 Norte 12 Norte 0 -- -- 63
2019-11-18 10:00:00 0.4 5 Norte 8 Norte 0 -- -- 98
2019-11-18 09:00:00 0 6 Norte 8 Norte 0 -- -- 98
2019-11-18 08:00:00 0.4 3 Norte 6 Norte 0 -- -- 96
2019-11-18 07:00:00 0.9 0 Calma 5 Norte 0 -- -- 95
2019-11-18 06:00:00 1.2 3 Norte 6 Noroeste 0 -- -- 93
2019-11-18 05:00:00 1.4 2 Norte 8 Norte 0 -- -- 93
2019-11-18 04:00:00 1.9 0 Calma 8 Norte 0 -- -- 92
2019-11-18 03:00:00 2.1 5 Norte 9 Norte 0 -- -- 90
2019-11-18 02:00:00 3.2 2 Noroeste 9 Norte 0 -- -- 87
2019-11-18 01:00:00 3.8 4 Norte 8 Norte 0 -- -- 87
2019-11-18 00:00:00 3.8 5 Norte 9 Norte 0 -- -- 90
2019-11-17 23:00:00 4.4 0 Calma 4 Noroeste 0 -- -- 84
2019-11-17 22:00:00 4 0 Calma 5 Noroeste 0 -- -- 90
2019-11-17 21:00:00 3.2 4 Norte 9 Norte 0 -- -- 91
2019-11-17 20:00:00 4 6 Norte 9 Norte 0 -- -- 85
2019-11-17 19:00:00 5.3 3 Este 22 Sur 0 -- -- 84
2019-11-17 18:00:00 5.9 18 Sur 31 Sur 0 -- -- 83
2019-11-17 17:00:00 6.6 23 Sur 39 Sur 0 -- -- 78
2019-11-17 16:00:00 7.9 31 Sur 40 Sur 0 -- -- 71
2019-11-17 15:00:00 8.4 22 Sur 41 Sur 0 -- -- 71
2019-11-17 14:00:00 7 21 Sur 29 Sur 0 -- -- 69
2019-11-17 13:00:00 7.7 15 Sur 21 Sur 0 -- -- 69
2019-11-17 12:00:00 7.3 3 Sudeste 8 Sudeste 0 -- -- 62
2019-11-17 11:00:00 5.6 0 Calma 9 Norte 0 -- -- 86
2019-11-17 10:00:00 -1.8 3 Norte 5 Norte 0 -- -- 100
2019-11-17 09:00:00 -2.4 3 Nordeste 8 Noroeste 0 -- -- 99
2019-11-17 08:00:00 -2.5 7 Norte 14 Norte 0 -- -- 100
2019-11-17 07:00:00 -2.9 8 Norte 14 Norte 0 -- -- 100
2019-11-17 06:00:00 -2.9 2 Nordeste 8 Norte 0 -- -- 100
2019-11-17 05:00:00 -3 4 Norte 8 Nordeste 0 -- -- 100
2019-11-17 04:00:00 -2.8 4 Norte 8 Norte 0 -- -- 100
2019-11-17 03:00:00 -2.4 7 Norte 10 Nordeste 0 -- -- 100
2019-11-17 02:00:00 -1.9 6 Norte 10 Norte 0 -- -- 99
2019-11-17 01:00:00 -2 4 Norte 8 Norte 0 -- -- 99
2019-11-17 00:00:00 -1.4 3 Norte 7 Este 0 -- -- 99
2019-11-16 23:00:00 -0.9 3 Norte 5 Sur 0 -- -- 98
2019-11-16 22:00:00 -0.7 4 Norte 8 Nordeste 0 -- -- 97
2019-11-16 21:00:00 0 5 Norte 10 Norte 0 -- -- 95
2019-11-16 20:00:00 0.9 7 Norte 9 Norte 0 -- -- 94
2019-11-16 19:00:00 2.6 5 Sudoeste 27 Sur 0 -- -- 92
2019-11-16 18:00:00 3.3 21 Sur 33 Sur 0 -- -- 90
2019-11-16 17:00:00 4.3 26 Sur 37 Sur 0 -- -- 85
2019-11-16 16:00:00 5.8 26 Sudeste 41 Sur 0 -- -- 77
2019-11-16 15:00:00 6.9 35 Sur 44 Sur 0 -- -- 73
2019-11-16 14:00:00 6.9 23 Sur 29 Sur 0.2 -- -- 70
2019-11-16 13:00:00 10.9 2 Nordeste 9 Nordeste 0 -- -- 44
2019-11-16 12:00:00 7.3 4 Norte 9 Nordeste 0 -- -- 57
2019-11-16 11:00:00 6.1 3 Norte 6 Nordeste 0 -- -- 67
2019-11-16 10:00:00 -1.9 3 Nordeste 8 Norte 0 -- -- 98
2019-11-16 09:00:00 -2.9 5 Norte 10 Norte 0 -- -- 100
2019-11-16 08:00:00 -3.1 7 Nordeste 9 Norte 0 -- -- 100
2019-11-16 07:00:00 -3.1 4 Norte 8 Norte 0 -- -- 100
2019-11-16 06:00:00 -2.5 3 Norte 9 Norte 0 -- -- 100
2019-11-16 05:00:00 -2.1 4 Norte 7 Norte 0 -- -- 99
2019-11-16 04:00:00 -1.7 3 Nordeste 9 Nordeste 0 -- -- 100
2019-11-16 03:00:00 -1.9 7 Norte 14 Norte 0 -- -- 100
2019-11-16 02:00:00 -1 2 Norte 8 Norte 0 -- -- 100
2019-11-16 01:00:00 -1.8 7 Norte 10 Norte 0 -- -- 100
2019-11-16 00:00:00 -1.2 6 Norte 8 Nordeste 0 -- -- 100
2019-11-15 23:00:00 -0.9 6 Nordeste 8 Nordeste 0 -- -- 100
2019-11-15 22:00:00 0.1 7 Norte 12 Norte 0 -- -- 99
2019-11-15 21:00:00 0.2 6 Norte 8 Norte 0 -- -- 97
2019-11-15 20:00:00 2.1 0 Calma 15 Sur 0 -- -- 95
2019-11-15 19:00:00 3.2 13 Sur 24 Sur 0 -- -- 94
2019-11-15 18:00:00 4 18 Sur 31 Sur 0 -- -- 91
2019-11-15 17:00:00 4.2 23 Sur 32 Sur 0 -- -- 89
2019-11-15 16:00:00 4.4 28 Sur 35 Sur 0.2 -- -- 87
2019-11-15 15:00:00 4.3 27 Sur 33 Sur 0 -- -- 86
2019-11-15 14:00:00 4.3 21 Sur 38 Sur 0 -- -- 85
2019-11-15 13:00:00 3.8 31 Sur 36 Sur 0 -- -- 88
2019-11-15 12:00:00 5.4 22 Sur 30 Sur 0 -- -- 80
2019-11-15 11:00:00 7 0 Calma 6 Norte 0 -- -- 87
2019-11-15 10:00:00 -0.8 4 Norte 5 Nordeste 0 -- -- 100
2019-11-15 09:00:00 -1.1 2 Norte 5 Norte 0 -- -- 100
2019-11-15 08:00:00 -1.6 5 Nordeste 8 Nordeste 0 -- -- 100
2019-11-15 07:00:00 -1.3 2 Norte 8 Norte 0 -- -- 100
2019-11-15 06:00:00 -0.5 3 Noroeste 5 Norte 0 -- -- 100
2019-11-15 05:00:00 -0.7 4 Norte 9 Norte 0 -- -- 100
2019-11-15 04:00:00 -0.4 4 Norte 8 Norte 0 -- -- 100
2019-11-15 03:00:00 -0.7 5 Norte 9 Norte 0 -- -- 100
2019-11-15 02:00:00 0 5 Norte 9 Nordeste 0 -- -- 100
2019-11-15 01:00:00 0.5 2 Norte 13 Norte 0 -- -- 100
2019-11-15 00:00:00 1.2 3 Nordeste 6 Sudeste 0 -- -- 98
2019-11-14 23:00:00 1.5 5 Sur 12 Sur 0 -- -- 100
2019-11-14 22:00:00 1.2 7 Nordeste 10 Norte 0.2 -- -- 99
2019-11-14 21:00:00 2.3 4 Nordeste 8 Norte 0 -- -- 99
2019-11-14 20:00:00 3.5 4 Noroeste 8 Sudoeste 0 -- -- 94
2019-11-14 19:00:00 4.4 3 Sudoeste 19 Sur 0 -- -- 93
2019-11-14 18:00:00 4.9 8 Sudoeste 29 Sur 0 -- -- 94
2019-11-14 17:00:00 5.2 21 Sur 28 Sur 0 -- -- 95
2019-11-14 16:00:00 6.2 16 Sudeste 33 Sudeste 0 -- -- 93
2019-11-14 15:00:00 6.4 16 Sur 23 Sur 0.2 -- -- 97
2019-11-14 14:00:00 5.4 6 Sur 13 Sur 0.2 -- -- 99
2019-11-14 13:00:00 5.3 4 Norte 8 Sur 0 -- -- 99
2019-11-14 12:00:00 4.6 2 Sudeste 9 Norte 0.2 -- -- 99
2019-11-14 11:00:00 4 3 Norte 5 Norte 2.4 -- -- 100
2019-11-14 10:00:00 3.8 3 Nordeste 7 Nordeste 1 -- -- 99
2019-11-14 09:00:00 3.4 2 Noroeste 8 Norte 0.2 -- -- 99
2019-11-14 08:00:00 3 0 Calma 6 Noroeste 0.6 -- -- 99
2019-11-14 07:00:00 3 5 Norte 7 Norte 0.6 -- -- 99
2019-11-14 06:00:00 3.1 3 Norte 8 Nordeste 0.2 -- -- 99
2019-11-14 05:00:00 2.9 3 Norte 8 Norte 0 -- -- 98
2019-11-14 04:00:00 3 3 Este 7 Norte 0.6 -- -- 98
2019-11-14 03:00:00 3.2 6 Norte 9 Norte 0 -- -- 98
2019-11-14 02:00:00 3.3 0 Calma 5 Norte 0 -- -- 98
2019-11-14 01:00:00 3.4 2 Norte 5 Nordeste 0 -- -- 98
2019-11-14 00:00:00 3.2 2 Norte 8 Norte 0 -- -- 99
2019-11-13 23:00:00 3.1 3 Norte 4 Norte 0 -- -- 98
2019-11-13 22:00:00 3.2 4 Nordeste 5 Norte 0 -- -- 96
2019-11-13 21:00:00 3.9 6 Norte 7 Norte 0 -- -- 95
2019-11-13 20:00:00 6.1 3 Este 27 Sur 0 -- -- 91
2019-11-13 19:00:00 7.3 15 Sur 36 Sudeste 0 -- -- 89
2019-11-13 18:00:00 8.2 30 Sur 43 Sur 0 -- -- 85
2019-11-13 17:00:00 9.6 33 Sur 44 Sur 0 -- -- 75
2019-11-13 16:00:00 13.4 22 Sudeste 37 Sur 0 -- -- 58
2019-11-13 15:00:00 13.5 24 Sur 31 Sur 0 -- -- 58
2019-11-13 14:00:00 14.7 8 Sur 12 Sudeste 0 -- -- 50
2019-11-13 13:00:00 14.1 0 Calma 5 Sur 0 -- -- 49
2019-11-13 12:00:00 8.6 2 Norte 5 Nordeste 0 -- -- 66
2019-11-13 11:00:00 5 4 Norte 6 Norte 0 -- -- 84
2019-11-13 10:00:00 3.7 0 Calma 5 Norte 0 -- -- 93
2019-11-13 09:00:00 1.6 2 Norte 8 Norte 0 -- -- 99
2019-11-13 08:00:00 0.7 4 Norte 6 Norte 0 -- -- 99
2019-11-13 07:00:00 0.5 4 Norte 8 Noroeste 0 -- -- 100
2019-11-13 06:00:00 0.7 6 Norte 9 Norte 0 -- -- 99
2019-11-13 05:00:00 0.2 6 Norte 8 Nordeste 0 -- -- 99
2019-11-13 04:00:00 0.2 5 Norte 8 Nordeste 0 -- -- 99
2019-11-13 03:00:00 0.6 4 Norte 6 Norte 0 -- -- 98
2019-11-13 02:00:00 1.3 3 Norte 6 Norte 0 -- -- 98
2019-11-13 01:00:00 1.7 5 Norte 6 Norte 0 -- -- 95
2019-11-13 00:00:00 3.1 0 Calma 5 Sudeste 0 -- -- 90
2019-11-12 23:00:00 5.4 4 Sudeste 30 Sudeste 0 -- -- 87
2019-11-12 22:00:00 6.1 23 Sur 33 Sur 0 -- -- 85
2019-11-12 21:00:00 5 5 Nordeste 10 Norte 0 -- -- 76
2019-11-12 20:00:00 6.1 9 Norte 12 Norte 0 -- -- 71
2019-11-12 19:00:00 9.8 2 Norte 18 Sudoeste 0 -- -- 61
2019-11-12 18:00:00 10.9 5 Oeste 27 Norte 0 -- -- 53
2019-11-12 17:00:00 11.8 18 Norte 40 Norte 0 -- -- 42
2019-11-12 16:00:00 15 23 Norte 45 Nordeste 0 -- -- 34
2019-11-12 15:00:00 16.1 17 Norte 59 Nordeste 0 -- -- 31
2019-11-12 14:00:00 15.8 24 Norte 45 Norte 0 -- -- 28
2019-11-12 13:00:00 16.1 21 Norte 37 Norte 0 -- -- 30
2019-11-12 12:00:00 15 19 Nordeste 25 Norte 0 -- -- 34
2019-11-12 11:00:00 9.4 10 Norte 15 Norte 0 -- -- 54
2019-11-12 10:00:00 3.6 2 Oeste 7 Norte 0 -- -- 66
2019-11-12 09:00:00 2.4 4 Norte 16 Norte 0 -- -- 73
2019-11-12 08:00:00 3.3 3 Oeste 15 Nordeste 0 -- -- 65
2019-11-12 07:00:00 4 5 Noroeste 14 Norte 0 -- -- 62
2019-11-12 06:00:00 3.6 10 Norte 20 Norte 0 -- -- 68
2019-11-12 05:00:00 3.2 11 Norte 23 Nordeste 0 -- -- 68
2019-11-12 04:00:00 3.7 10 Norte 22 Norte 0 -- -- 65
2019-11-12 03:00:00 3.7 11 Norte 17 Noroeste 0 -- -- 66
2019-11-12 02:00:00 5.3 6 Norte 20 Norte 0 -- -- 59
2019-11-12 01:00:00 5.8 7 Norte 23 Noroeste 0 -- -- 57
2019-11-12 00:00:00 9 15 Norte 30 Norte 0 -- -- 40